Terminal Aerodrome Forecast
Issued by NWS

Home | Current Version | Previous Version | Text Only | Print | Product List | Glossary On
Versions: 1 2 3 4 5 6 7 8 9 10 11 12 13 14 15 16
000
FTUS43 KGRB 222336
TAFCWA
TAF
KCWA 222336Z 2300/2324 23004KT P6SM SCT120 BKN200
     FM230200 21004KT P6SM SKC
     FM230900 17004KT 5SM BR SCT250
      TEMPO 2309/2313 2SM BR
     FM231300 20007KT P6SM BKN120 BKN250
     FM231900 27006KT P6SM SCT020 BKN090 PROB30 2320/2324 -SHRA
      BKN020=

USA.gov is the U.S. government's official web portal to all federal, state and local government web resources and services.